createdAt,value
2022-10-13T00:02:16.593Z,3.93
2022-10-13T00:05:02.128Z,4.33
2022-10-13T00:07:46.963Z,3.33
2022-10-13T00:10:31.873Z,3.80
2022-10-13T00:13:17.623Z,3.23
2022-10-13T00:16:04.003Z,3.90
2022-10-13T00:18:50.623Z,3.60
2022-10-13T00:21:35.734Z,3.90
2022-10-13T00:24:20.654Z,3.50
2022-10-13T00:27:05.730Z,3.73
2022-10-13T00:29:53.102Z,3.90
2022-10-13T00:32:38.072Z,4.20
2022-10-13T00:35:24.475Z,3.90
2022-10-13T00:38:09.730Z,3.33
2022-10-13T00:40:55.781Z,3.70
2022-10-13T00:44:27.675Z,3.57
2022-10-13T00:47:12.648Z,3.27
2022-10-13T00:49:58.065Z,3.77
2022-10-13T00:52:44.066Z,3.77
2022-10-13T00:55:36.490Z,3.50
2022-10-13T00:58:25.357Z,3.87
2022-10-13T01:01:10.971Z,3.60
2022-10-13T01:03:56.475Z,4.23
2022-10-13T01:06:41.893Z,3.20
2022-10-13T01:09:27.104Z,3.80
2022-10-13T01:12:38.277Z,4.33
2022-10-13T01:15:49.343Z,3.87
2022-10-13T01:18:40.378Z,4.20
2022-10-13T01:21:47.343Z,3.97
2022-10-13T01:24:38.851Z,3.00
2022-10-13T01:27:48.189Z,4.70
2022-10-13T01:30:40.582Z,3.73
2022-10-13T01:33:56.574Z,3.50
2022-10-13T01:36:53.955Z,3.53
2022-10-13T01:39:49.178Z,4.07
2022-10-13T01:42:53.760Z,3.93
2022-10-13T01:45:44.565Z,3.90
2022-10-13T01:48:31.572Z,3.93
2022-10-13T01:51:20.553Z,3.77
2022-10-13T01:54:09.273Z,3.90
2022-10-13T01:56:56.132Z,3.30
2022-10-13T01:59:40.940Z,4.03
2022-10-13T02:02:37.188Z,4.50
2022-10-13T02:05:34.230Z,3.70
2022-10-13T02:08:29.794Z,3.03
2022-10-13T02:11:20.407Z,3.50
2022-10-13T02:14:14.530Z,3.83
2022-10-13T02:17:03.633Z,3.83
2022-10-13T02:19:48.716Z,3.47
2022-10-13T02:22:40.674Z,3.20
2022-10-13T02:25:25.995Z,3.30
2022-10-13T02:28:13.365Z,3.27
2022-10-13T02:31:02.056Z,3.27
2022-10-13T02:33:46.882Z,3.93
2022-10-13T02:36:32.668Z,3.60
2022-10-13T02:39:17.932Z,3.90
2022-10-13T02:42:02.790Z,3.53
2022-10-13T02:44:47.614Z,3.60
2022-10-13T02:47:32.693Z,3.53
2022-10-13T02:50:20.915Z,3.70
2022-10-13T02:53:08.755Z,4.10
2022-10-13T02:55:53.734Z,3.70
2022-10-13T02:58:38.872Z,3.00
2022-10-13T03:01:23.994Z,3.63
2022-10-13T03:04:09.135Z,3.60
2022-10-13T03:06:54.364Z,3.30
2022-10-13T03:09:39.455Z,3.43
2022-10-13T03:12:24.219Z,3.43
2022-10-13T03:15:09.427Z,3.83
2022-10-13T03:17:54.375Z,3.83
2022-10-13T03:20:39.426Z,3.20
2022-10-13T03:23:25.154Z,3.23
2022-10-13T03:26:10.062Z,4.87
2022-10-13T03:28:54.993Z,2.90
2022-10-13T03:31:39.897Z,3.17
2022-10-13T03:34:25.282Z,3.10
2022-10-13T03:37:10.865Z,3.43
2022-10-13T03:39:59.962Z,3.40
2022-10-13T03:42:45.336Z,3.63
2022-10-13T03:45:31.321Z,3.67
2022-10-13T03:48:16.706Z,3.20
2022-10-13T03:51:10.105Z,3.43
2022-10-13T03:53:58.453Z,3.60
2022-10-13T03:56:43.871Z,3.50
2022-10-13T03:59:34.151Z,3.70
2022-10-13T04:02:21.792Z,3.40
2022-10-13T04:05:08.073Z,3.37
2022-10-13T04:07:53.456Z,3.47
2022-10-13T04:10:45.369Z,3.67
2022-10-13T04:13:31.749Z,3.53
2022-10-13T04:16:25.887Z,3.33
2022-10-13T04:19:13.145Z,3.40
2022-10-13T04:21:58.136Z,3.53
2022-10-13T04:24:43.029Z,3.33
2022-10-13T04:27:28.412Z,3.20
2022-10-13T04:30:13.734Z,3.33
2022-10-13T04:32:58.690Z,3.60
2022-10-13T04:35:43.526Z,3.20
2022-10-13T04:38:28.691Z,3.20
2022-10-13T04:41:15.356Z,3.20
2022-10-13T04:44:02.377Z,3.50
2022-10-13T04:46:47.410Z,3.50
2022-10-13T04:49:32.631Z,3.20
2022-10-13T04:52:18.033Z,3.43
2022-10-13T04:55:04.603Z,2.90
2022-10-13T04:57:49.493Z,4.47
2022-10-13T05:00:34.475Z,3.00
2022-10-13T05:03:19.343Z,3.13
2022-10-13T05:06:04.486Z,3.40
2022-10-13T05:08:50.734Z,3.47
2022-10-13T05:11:35.795Z,3.70
2022-10-13T05:14:22.351Z,3.10
2022-10-13T05:17:07.585Z,3.50
2022-10-13T05:19:52.853Z,3.37
2022-10-13T05:22:38.047Z,3.90
2022-10-13T05:25:22.973Z,3.40
2022-10-13T05:28:08.586Z,3.33
2022-10-13T05:30:53.591Z,3.13
2022-10-13T05:33:38.849Z,3.20
2022-10-13T05:36:29.974Z,3.33
2022-10-13T05:39:15.050Z,2.90
2022-10-13T05:42:00.002Z,3.07
2022-10-13T05:44:44.922Z,5.90
2022-10-13T05:47:30.087Z,7.00
2022-10-13T05:50:15.043Z,11.07
2022-10-13T05:52:59.994Z,13.47
2022-10-13T05:55:45.637Z,17.17
2022-10-13T05:58:34.311Z,11.70
2022-10-13T06:01:23.606Z,9.40
2022-10-13T06:04:18.499Z,10.53
2022-10-13T06:07:04.057Z,7.67
2022-10-13T06:09:49.837Z,7.33
2022-10-13T06:12:35.058Z,8.90
2022-10-13T06:15:25.645Z,7.80
2022-10-13T06:18:14.695Z,9.97
2022-10-13T06:20:59.743Z,13.00
2022-10-13T06:23:44.535Z,8.10
2022-10-13T06:26:30.017Z,9.57
2022-10-13T06:29:14.745Z,6.67
2022-10-13T06:31:59.605Z,6.30
2022-10-13T06:34:44.537Z,6.60
2022-10-13T06:37:29.506Z,5.90
2022-10-13T06:40:15.367Z,7.90
2022-10-13T06:43:00.352Z,7.53
2022-10-13T06:45:45.547Z,9.53
2022-10-13T06:48:30.441Z,5.57
2022-10-13T06:51:15.671Z,6.13
2022-10-13T06:54:00.585Z,5.67
2022-10-13T06:56:46.453Z,5.60
2022-10-13T06:59:31.689Z,5.50
2022-10-13T07:02:17.095Z,6.50
2022-10-13T07:05:02.842Z,5.23
2022-10-13T07:07:48.138Z,6.07
2022-10-13T07:10:33.682Z,6.37
2022-10-13T07:13:18.590Z,5.63
2022-10-13T07:16:04.396Z,5.60
2022-10-13T07:18:49.853Z,4.93
2022-10-13T07:21:34.641Z,6.40
2022-10-13T07:24:19.576Z,5.63
2022-10-13T07:27:07.798Z,5.13
2022-10-13T07:29:53.008Z,5.97
2022-10-13T07:32:41.803Z,5.60
2022-10-13T07:35:30.695Z,7.23
2022-10-13T07:38:16.086Z,5.63
2022-10-13T07:41:08.792Z,5.47
2022-10-13T07:43:55.433Z,6.17
2022-10-13T07:46:40.269Z,5.57
2022-10-13T07:49:25.206Z,4.97
2022-10-13T07:52:10.503Z,9.97
2022-10-13T07:54:55.723Z,5.27
2022-10-13T07:57:41.057Z,7.37
2022-10-13T08:00:25.918Z,5.60
2022-10-13T08:03:10.786Z,6.23
2022-10-13T08:05:59.194Z,5.60
2022-10-13T08:08:44.180Z,4.83
2022-10-13T08:11:31.908Z,8.23
2022-10-13T08:14:17.237Z,6.53
2022-10-13T08:17:02.634Z,4.83
2022-10-13T08:19:47.868Z,6.23
2022-10-13T08:22:36.890Z,5.37
2022-10-13T08:25:21.757Z,4.63
2022-10-13T08:28:16.869Z,4.87
2022-10-13T08:31:02.439Z,4.63
2022-10-13T08:33:47.930Z,4.67
2022-10-13T08:36:33.705Z,4.90
2022-10-13T08:39:18.852Z,5.40
2022-10-13T08:42:13.590Z,4.67
2022-10-13T08:48:13.234Z,5.37
2022-10-13T08:51:01.762Z,4.27
2022-10-13T08:53:48.589Z,4.73
2022-10-13T08:56:35.195Z,7.00
2022-10-13T08:59:21.679Z,5.17
2022-10-13T09:02:15.084Z,4.70
2022-10-13T09:05:03.246Z,4.27
2022-10-13T09:07:51.213Z,4.80
2022-10-13T09:10:50.235Z,4.13
2022-10-13T09:13:37.238Z,9.00
2022-10-13T09:16:43.524Z,4.50
2022-10-13T09:19:34.041Z,4.73
2022-10-13T09:22:29.606Z,5.33
2022-10-13T09:25:21.262Z,4.77
2022-10-13T09:28:16.737Z,5.77
2022-10-13T09:31:15.022Z,5.87
2022-10-13T09:34:03.360Z,3.80
2022-10-13T09:37:03.431Z,4.20
2022-10-13T09:40:02.200Z,5.27
2022-10-13T09:42:53.816Z,5.17
2022-10-13T09:45:42.942Z,4.63
2022-10-13T09:48:36.955Z,5.07
2022-10-13T09:51:39.970Z,4.50
2022-10-13T09:54:43.918Z,5.17
2022-10-13T09:57:35.485Z,4.90
2022-10-13T10:00:23.265Z,4.63
2022-10-13T10:03:13.092Z,4.47
2022-10-13T10:06:01.668Z,4.73
2022-10-13T10:09:08.380Z,4.37
2022-10-13T10:11:57.675Z,5.10
2022-10-13T10:14:43.098Z,4.80
2022-10-13T10:17:50.740Z,4.13
2022-10-13T10:20:51.245Z,5.40
2022-10-13T10:23:55.528Z,4.20
2022-10-13T10:26:46.757Z,4.60
2022-10-13T10:29:57.632Z,4.30
2022-10-13T10:32:50.822Z,4.53
2022-10-13T10:36:23.361Z,5.17
2022-10-13T10:39:14.502Z,4.63
2022-10-13T10:42:27.230Z,5.63
2022-10-13T10:45:23.209Z,7.17
2022-10-13T10:48:24.456Z,5.77
2022-10-13T10:51:11.129Z,6.33
2022-10-13T10:53:56.229Z,5.50
2022-10-13T10:56:47.616Z,10.37
2022-10-13T10:59:51.706Z,11.60
2022-10-13T11:03:09.473Z,14.47
2022-10-13T11:05:57.459Z,11.30
2022-10-13T11:08:46.611Z,12.17
2022-10-13T11:11:38.909Z,10.93
2022-10-13T11:14:30.794Z,9.83
2022-10-13T11:17:34.104Z,10.50
2022-10-13T11:20:19.761Z,8.33
2022-10-13T11:23:04.790Z,8.20
2022-10-13T11:25:49.721Z,7.23
2022-10-13T11:28:40.862Z,9.07
2022-10-13T11:31:33.564Z,10.07
2022-10-13T11:34:32.204Z,8.47
2022-10-13T11:37:17.834Z,8.03
2022-10-13T11:40:36.451Z,7.90
2022-10-13T11:43:30.062Z,7.90
2022-10-13T11:46:25.817Z,11.70
2022-10-13T11:49:20.592Z,8.00
2022-10-13T11:52:24.615Z,9.97
2022-10-13T11:55:17.512Z,7.77
2022-10-13T11:58:15.586Z,8.17
2022-10-13T12:01:13.516Z,9.67
2022-10-13T12:03:59.047Z,10.30
2022-10-13T12:06:52.533Z,10.87
2022-10-13T12:09:54.560Z,6.80
2022-10-13T12:12:48.409Z,9.00
2022-10-13T12:15:41.871Z,6.67
2022-10-13T12:18:36.013Z,7.00
2022-10-13T12:21:22.835Z,6.07
2022-10-13T12:24:09.944Z,7.53
2022-10-13T12:26:56.242Z,5.97
2022-10-13T12:29:41.789Z,6.10
2022-10-13T12:32:32.580Z,6.67
2022-10-13T12:35:25.286Z,6.43
2022-10-13T12:38:19.142Z,6.40
2022-10-13T12:41:04.829Z,5.83
2022-10-13T12:43:51.582Z,7.27
2022-10-13T12:46:41.434Z,5.90
2022-10-13T12:49:29.620Z,6.77
2022-10-13T12:52:24.967Z,9.33
2022-10-13T12:55:16.405Z,6.13
2022-10-13T12:58:01.645Z,7.50
2022-10-13T13:01:03.182Z,7.20
2022-10-13T13:03:55.038Z,6.73
2022-10-13T13:06:56.355Z,6.40
2022-10-13T13:09:41.871Z,6.50
2022-10-13T13:12:28.730Z,6.60
2022-10-13T13:15:26.990Z,7.53
2022-10-13T13:18:31.941Z,6.33
2022-10-13T13:21:19.290Z,5.60
2022-10-13T13:24:16.230Z,6.03
2022-10-13T13:27:39.182Z,6.67
2022-10-13T13:30:24.650Z,6.80
2022-10-13T13:35:59.751Z,6.60
2022-10-13T13:38:45.251Z,5.97
2022-10-13T13:41:31.296Z,5.77
2022-10-13T13:44:16.277Z,5.10
2022-10-13T13:47:02.794Z,5.50
2022-10-13T13:49:49.757Z,8.87
2022-10-13T13:52:34.974Z,6.97
2022-10-13T13:55:19.791Z,6.47
2022-10-13T13:58:05.045Z,5.47
2022-10-13T14:00:50.215Z,7.47
2022-10-13T14:03:35.334Z,5.93
2022-10-13T14:06:22.923Z,6.87
2022-10-13T14:09:07.890Z,6.53
2022-10-13T14:11:52.858Z,5.30
2022-10-13T14:14:38.003Z,6.47
2022-10-13T14:17:23.097Z,4.53
2022-10-13T14:20:08.862Z,7.20
2022-10-13T14:22:55.923Z,5.80
2022-10-13T14:25:40.798Z,5.60
2022-10-13T14:28:25.859Z,4.70
2022-10-13T14:31:11.259Z,4.57
2022-10-13T14:33:59.010Z,5.20
2022-10-13T14:36:45.889Z,4.60
2022-10-13T14:39:30.817Z,5.67
2022-10-13T14:42:15.882Z,5.93
2022-10-13T14:45:02.660Z,4.80
2022-10-13T14:47:47.674Z,7.07
2022-10-13T14:50:32.707Z,5.90
2022-10-13T14:53:17.726Z,6.90
2022-10-13T14:56:03.347Z,5.00
2022-10-13T14:58:50.893Z,5.57
2022-10-13T15:01:36.550Z,4.60
2022-10-13T15:04:21.395Z,6.63
2022-10-13T15:07:08.736Z,6.60
2022-10-13T15:10:05.853Z,4.23
2022-10-13T15:12:51.569Z,4.23
2022-10-13T15:15:36.762Z,4.83
2022-10-13T15:18:25.786Z,5.23
2022-10-13T15:21:13.835Z,5.57
2022-10-13T15:23:59.154Z,4.33
2022-10-13T15:26:43.929Z,4.80
2022-10-13T15:29:28.866Z,5.27
2022-10-13T15:32:18.072Z,4.00
2022-10-13T15:35:08.109Z,4.63
2022-10-13T15:37:54.609Z,5.47
2022-10-13T15:40:43.305Z,4.57
2022-10-13T15:43:29.128Z,3.93
2022-10-13T15:46:21.327Z,4.47
2022-10-13T15:49:06.521Z,4.80
2022-10-13T15:51:52.457Z,5.00
2022-10-13T15:54:37.716Z,5.50
2022-10-13T15:57:22.723Z,4.33
2022-10-13T16:00:09.479Z,9.10
2022-10-13T16:02:57.685Z,5.00
2022-10-13T16:05:44.110Z,9.13
2022-10-13T16:08:29.064Z,13.00
2022-10-13T16:11:20.015Z,7.97
2022-10-13T16:14:05.004Z,8.27
2022-10-13T16:16:50.416Z,12.80
2022-10-13T16:19:35.344Z,7.90
2022-10-13T16:22:20.760Z,6.83
2022-10-13T16:25:06.868Z,10.33
2022-10-13T16:27:51.911Z,17.87
2022-10-13T16:30:37.255Z,20.10
2022-10-13T16:33:22.903Z,19.80
2022-10-13T16:36:10.710Z,34.90
2022-10-13T16:38:57.714Z,28.43
2022-10-13T16:41:43.267Z,29.63
2022-10-13T16:44:29.340Z,28.83
2022-10-13T16:47:18.215Z,36.07
2022-10-13T16:50:09.231Z,25.57
2022-10-13T16:52:54.530Z,31.40
2022-10-13T16:55:40.516Z,37.73
2022-10-13T16:58:25.670Z,33.80
2022-10-13T17:01:12.573Z,30.67
2022-10-13T17:03:58.310Z,26.70
2022-10-13T17:06:43.449Z,28.33
2022-10-13T17:09:28.315Z,24.87
2022-10-13T17:12:13.370Z,35.23
2022-10-13T17:14:58.631Z,30.83
2022-10-13T17:17:46.960Z,39.00
2022-10-13T17:20:37.014Z,46.80
2022-10-13T17:23:23.798Z,44.73
2022-10-13T17:26:11.123Z,59.87
2022-10-13T17:28:56.635Z,67.37
2022-10-13T17:31:41.928Z,72.53
2022-10-13T17:34:26.849Z,77.23
2022-10-13T17:37:11.760Z,93.67
2022-10-13T17:39:56.660Z,92.47
2022-10-13T17:42:42.241Z,95.57
2022-10-13T17:45:27.712Z,94.77
2022-10-13T17:48:14.432Z,106.70
2022-10-13T17:51:07.401Z,92.30
2022-10-13T17:53:58.037Z,99.87
2022-10-13T17:56:43.373Z,96.73
2022-10-13T17:59:30.087Z,92.07
2022-10-13T18:05:16.184Z,92.33
2022-10-13T18:08:03.535Z,86.17
2022-10-13T18:11:08.238Z,83.33
2022-10-13T18:14:01.292Z,86.70
2022-10-13T18:16:46.857Z,74.60
2022-10-13T18:19:40.113Z,74.67
2022-10-13T18:22:28.804Z,65.33
2022-10-13T18:25:19.494Z,63.47
2022-10-13T18:28:07.423Z,58.67
2022-10-13T18:30:54.455Z,56.90
2022-10-13T18:34:01.096Z,52.17
2022-10-13T18:36:51.160Z,56.03
2022-10-13T18:39:36.239Z,55.43
2022-10-13T18:42:21.990Z,53.27
2022-10-13T18:45:07.892Z,50.13
2022-10-13T18:47:53.989Z,48.40
2022-10-13T18:50:39.228Z,46.43
2022-10-13T18:53:24.336Z,44.87
2022-10-13T18:56:14.249Z,44.17
2022-10-13T18:59:01.499Z,45.87
2022-10-13T19:01:46.624Z,44.23
2022-10-13T19:04:32.067Z,40.97
2022-10-13T19:07:17.037Z,38.37
2022-10-13T19:10:02.009Z,38.37
2022-10-13T19:12:46.906Z,33.43
2022-10-13T19:15:31.906Z,32.83
2022-10-13T19:18:17.781Z,31.40
2022-10-13T19:21:04.695Z,29.83
2022-10-13T19:23:50.164Z,34.33
2022-10-13T19:26:37.925Z,24.33
2022-10-13T19:29:22.880Z,24.60
2022-10-13T19:32:08.004Z,27.73
2022-10-13T19:34:53.004Z,27.63
2022-10-13T19:37:39.214Z,25.73
2022-10-13T19:40:24.541Z,25.90
2022-10-13T19:43:10.268Z,23.47
2022-10-13T19:45:59.639Z,22.73
2022-10-13T19:48:45.590Z,21.60
2022-10-13T19:51:30.550Z,24.63
2022-10-13T19:54:19.498Z,23.33
2022-10-13T19:57:05.126Z,20.77
2022-10-13T19:59:50.378Z,21.37
2022-10-13T20:02:35.596Z,18.17
2022-10-13T20:05:25.267Z,19.27
2022-10-13T20:08:12.394Z,22.63
2022-10-13T20:10:57.778Z,19.93
2022-10-13T20:13:46.780Z,17.37
2022-10-13T20:16:31.728Z,14.87
2022-10-13T20:19:19.285Z,18.57
2022-10-13T20:22:05.939Z,15.87
2022-10-13T20:24:50.875Z,17.23
2022-10-13T20:27:36.078Z,12.70
2022-10-13T20:30:21.141Z,19.23
2022-10-13T20:33:06.064Z,16.93
2022-10-13T20:35:51.165Z,17.17
2022-10-13T20:38:36.605Z,16.60
2022-10-13T20:41:26.886Z,24.30
2022-10-13T20:44:12.050Z,103.53
2022-10-13T20:46:57.389Z,162.43
2022-10-13T20:49:42.842Z,233.10
2022-10-13T20:52:27.806Z,297.97
2022-10-13T20:55:12.835Z,343.77
2022-10-13T20:57:57.747Z,411.00
2022-10-13T21:00:43.639Z,439.83
2022-10-13T21:03:29.265Z,466.93
2022-10-13T21:06:18.507Z,475.83
2022-10-13T21:09:05.500Z,488.30
2022-10-13T21:11:50.938Z,454.33
2022-10-13T21:14:36.076Z,405.47
2022-10-13T21:17:21.943Z,373.87
2022-10-13T21:20:07.900Z,354.17
2022-10-13T21:22:53.278Z,340.30
2022-10-13T21:25:39.149Z,313.97
2022-10-13T21:28:24.265Z,295.03
2022-10-13T21:31:13.105Z,287.93
2022-10-13T21:33:58.405Z,267.33
2022-10-13T21:36:45.263Z,252.97
2022-10-13T21:39:31.613Z,235.70
2022-10-13T21:42:16.597Z,235.80
2022-10-13T21:45:01.589Z,221.47
2022-10-13T21:47:46.708Z,211.90
2022-10-13T21:50:31.731Z,204.17
2022-10-13T21:53:16.576Z,198.03
2022-10-13T21:56:06.989Z,191.53
2022-10-13T21:58:52.330Z,168.80
2022-10-13T22:01:37.292Z,167.57
2022-10-13T22:04:26.744Z,158.70
2022-10-13T22:07:11.586Z,150.47
2022-10-13T22:09:56.566Z,152.67
2022-10-13T22:12:41.549Z,143.03
2022-10-13T22:15:26.517Z,142.23
2022-10-13T22:18:11.511Z,136.10
2022-10-13T22:21:03.274Z,123.47
2022-10-13T22:23:48.770Z,117.30
2022-10-13T22:26:36.477Z,112.07
2022-10-13T22:29:22.833Z,112.80
2022-10-13T22:32:07.691Z,108.50
2022-10-13T22:34:52.638Z,114.17
2022-10-13T22:37:37.508Z,101.20
2022-10-13T22:40:22.391Z,96.63
2022-10-13T22:43:08.490Z,95.87
2022-10-13T22:45:53.736Z,97.33
2022-10-13T22:48:40.936Z,91.73
2022-10-13T22:51:34.138Z,88.70
2022-10-13T22:54:19.285Z,82.53
2022-10-13T22:57:04.336Z,77.53
2022-10-13T22:59:49.411Z,76.00
2022-10-13T23:02:34.740Z,76.50
2022-10-13T23:05:19.669Z,79.90
2022-10-13T23:08:04.754Z,69.43
2022-10-13T23:10:49.916Z,70.03
2022-10-13T23:13:35.243Z,64.97
2022-10-13T23:16:25.869Z,60.80
2022-10-13T23:19:11.034Z,61.77
2022-10-13T23:21:56.147Z,60.23
2022-10-13T23:24:40.963Z,58.87
2022-10-13T23:27:25.882Z,57.27
2022-10-13T23:30:11.538Z,61.23
2022-10-13T23:32:56.704Z,60.80
2022-10-13T23:35:42.117Z,53.37
2022-10-13T23:38:29.028Z,54.87
2022-10-13T23:41:15.923Z,54.50
2022-10-13T23:44:01.177Z,49.80
2022-10-13T23:46:46.387Z,52.43
2022-10-13T23:49:33.306Z,46.40
2022-10-13T23:52:21.402Z,49.63
2022-10-13T23:55:06.814Z,44.50
2022-10-13T23:57:52.109Z,45.07
